Main page
METAR-TAF:

METAR-TAF

Airports :

Ibiza Airport

Ibiza, Spain

latitude: 38-52N, longitude: 001-23E, elevation: 7 m

Current weather observation

The report was made 33 minutes ago, at 09:30 UTC
Wind 2 kt from variable directions
Temperature 17°C
Humidity 82%
Pressure 1015 hPa
Visibility 10 km or more
Few clouds at a height of 1200 ft

METAR: LEIB 060930Z VRB02KT 9999 FEW012 17/14 Q1015 NOSIG

Time: 11:03 (10:03 UTC)

Forecast

The report was made 2 hours and 3 minutes ago, at 08:00 UTC
Forecast valid from 06 at 09 UTC to 07 at 09 UTC
Wind 8 kt from the North/Northeast
Visibility 10 km or more
Scattered clouds at a height of 2000 ft
Probability 30% :
Temporary
from 06 at 09 UTC to 06 at 21 UTC
Few clouds at a height of 2500 ft, Towering cumulus.
rain showers
Becoming
from 06 at 18 UTC to 06 at 20 UTC
Wind 4 kt from the North/Northwest

TAF: LEIB 060800Z 0609/0709 03008KT 9999 SCT020 TX19/0612Z TN10/0706Z PROB30 TEMPO 0609/0621 SHRA FEW025TCU BECMG 0618/0620 34004KT

Weather observations and forecasts of more than 4000 airports (METAR and TAF reports).

The available stations are represented by yellow and red dots on the map.

Hover mouse over dot to see the name of the station.

Then click to see weather observations and forecasts.

To change the map : click on the green buttons with a black cross to zoom in, on the green button with a dash to zoom out, or on the green arrows for adjacent maps.


METAR-TAF: